Time;durP1;ratioP1;P1;durP2;ratioP2;P2;SDS_P1;SDS_P2;PMS_P1;PMS_P2;Temp;Humidity;BMP_temperature;BMP_pressure;BME280_temperature;BME280_humidity;BME280_pressure;Samples;Min_cycle;Max_cycle;Signal;HPM_P1;HPM_P2
2021/04/20 00:07:17;;;;;;;44.17;23.45;;;;;;;4.68;100.00;100495.13;20903733;28;20091;-67
2021/04/20 00:17:18;;;;;;;43.80;26.65;;;;;;;4.58;100.00;100496.28;20902810;28;20115;-67
2021/04/20 00:27:19;;;;;;;48.83;27.50;;;;;;;4.41;100.00;100488.13;20912882;28;20091;-66
2021/04/20 00:37:20;;;;;;;42.78;23.15;;;;;;;4.29;100.00;100482.41;20906168;28;20488;-67
2021/04/20 00:47:21;;;;;;;44.15;23.42;;;;;;;4.23;100.00;100479.97;20892653;28;20045;-67
2021/04/20 00:57:22;;;;;;;43.80;24.80;;;;;;;4.21;100.00;100463.63;20921123;28;20080;-67
2021/04/20 01:07:23;;;;;;;44.60;23.73;;;;;;;4.19;100.00;100464.53;20910052;28;20041;-67
2021/04/20 01:17:27;;;;;;;43.33;24.05;;;;;;;4.00;100.00;100456.44;20896755;28;20056;-67
2021/04/20 01:27:29;;;;;;;47.93;24.70;;;;;;;3.91;100.00;100467.03;20912698;28;20413;-67
2021/04/20 01:37:29;;;;;;;49.13;25.85;;;;;;;3.66;100.00;100471.97;20914221;28;20037;-68
2021/04/20 01:47:31;;;;;;;48.97;27.45;;;;;;;3.57;100.00;100461.00;20902255;28;20507;-67
2021/04/20 01:57:33;;;;;;;49.85;27.17;;;;;;;3.42;100.00;100451.88;20918046;28;20049;-67
2021/04/20 02:07:35;;;;;;;46.28;25.17;;;;;;;3.30;100.00;100458.19;20923117;28;20057;-67
2021/04/20 02:17:37;;;;;;;51.97;25.92;;;;;;;3.04;100.00;100460.53;20905904;28;20048;-67
2021/04/20 02:27:39;;;;;;;50.55;25.38;;;;;;;3.06;100.00;100457.91;20928014;28;20072;-67
2021/04/20 02:37:42;;;;;;;49.63;25.85;;;;;;;3.00;100.00;100448.53;20916641;28;20045;-68
2021/04/20 02:47:43;;;;;;;57.33;27.90;;;;;;;2.95;100.00;100445.22;20910249;28;20104;-67
2021/04/20 02:57:46;;;;;;;48.38;25.80;;;;;;;3.02;100.00;100454.53;20956670;28;20076;-67
2021/04/20 03:07:48;;;;;;;50.88;27.17;;;;;;;3.18;100.00;100442.13;20918353;28;20100;-68
2021/04/20 03:17:49;;;;;;;71.00;32.00;;;;;;;3.10;100.00;100444.84;20904844;28;20183;-67
2021/04/20 03:27:53;;;;;;;99.00;35.42;;;;;;;3.12;100.00;100450.00;20920808;28;20079;-68
2021/04/20 03:38:13;;;;;;;90.67;34.80;;;;;;;2.85;100.00;100448.88;20913268;28;20049;-67
2021/04/20 03:48:36;;;;;;;80.40;33.78;;;;;;;2.69;100.00;100442.38;20898810;28;20041;-68
2021/04/20 03:58:41;;;;;;;120.28;34.22;;;;;;;2.53;100.00;100439.25;20906738;28;20393;-68
2021/04/20 04:08:43;;;;;;;68.63;32.33;;;;;;;2.33;100.00;100442.25;20889331;28;20072;-68
2021/04/20 04:18:51;;;;;;;54.75;27.90;;;;;;;2.39;100.00;100434.34;20910666;28;20053;-68
2021/04/20 04:28:59;;;;;;;57.55;29.90;;;;;;;2.32;100.00;100437.97;20921997;28;20044;-68
2021/04/20 04:39:00;;;;;;;51.08;26.38;;;;;;;2.18;100.00;100437.41;20914726;28;20094;-68
2021/04/20 04:49:01;;;;;;;49.35;29.67;;;;;;;1.95;100.00;100449.88;20902139;28;20049;-67
2021/04/20 04:59:05;;;;;;;44.80;24.75;;;;;;;2.10;100.00;100447.84;20913428;28;20472;-67
2021/04/20 05:09:10;;;;;;;50.43;27.63;;;;;;;2.08;100.00;100451.34;20917585;28;20090;-68
2021/04/20 05:19:15;;;;;;;47.70;25.30;;;;;;;2.47;100.00;100449.72;20905658;28;20037;-68
2021/04/20 05:29:16;;;;;;;47.17;27.07;;;;;;;2.97;100.00;100464.13;20933028;28;20523;-67
2021/04/20 05:39:18;;;;;;;37.72;20.98;;;;;;;3.05;100.00;100471.72;20900781;28;20483;-68
2021/04/20 05:49:20;;;;;;;44.85;23.42;;;;;;;3.03;100.00;100464.00;20907047;28;20049;-67
2021/04/20 05:59:21;;;;;;;47.15;22.90;;;;;;;3.15;100.00;100473.22;20937926;28;20052;-67
2021/04/20 06:09:22;;;;;;;71.88;23.58;;;;;;;3.49;100.00;100473.28;20911646;28;20558;-67
2021/04/20 06:19:23;;;;;;;45.53;20.98;;;;;;;3.55;100.00;100480.91;20905317;28;20404;-68
2021/04/20 06:29:26;;;;;;;38.25;21.80;;;;;;;4.19;100.00;100488.72;20942515;28;20044;-68
2021/04/20 06:39:27;;;;;;;40.08;21.60;;;;;;;4.48;100.00;100484.47;20930140;28;20045;-68
2021/04/20 06:49:43;;;;;;;47.58;24.05;;;;;;;4.70;100.00;100490.75;20910454;28;20052;-68
2021/04/20 06:59:54;;;;;;;;;;;;;;;5.13;100.00;100480.78;20933359;28;20608;-68
2021/04/20 07:10:28;;;;;;;45.03;24.70;;;;;;;5.15;100.00;100484.19;20908586;28;20376;-68
2021/04/20 07:20:51;;;;;;;43.72;24.48;;;;;;;5.44;100.00;100490.22;20915022;28;20041;-68
2021/04/20 07:31:18;;;;;;;47.40;27.38;;;;;;;5.92;100.00;100488.66;20901779;28;20060;-68
2021/04/20 07:41:50;;;;;;;50.13;27.38;;;;;;;6.60;99.03;100482.78;20911059;28;20041;-70
2021/04/20 07:52:06;;;;;;;47.00;27.42;;;;;;;7.16;98.94;100479.78;20914868;28;20057;-70
2021/04/20 08:02:39;;;;;;;52.88;30.10;;;;;;;7.61;97.51;100470.16;20921117;28;20488;-70
2021/04/20 08:13:11;;;;;;;61.80;34.78;;;;;;;7.83;95.96;100466.63;20915855;28;20056;-70
2021/04/20 08:23:14;;;;;;;66.93;36.90;;;;;;;8.28;93.87;100461.25;20906982;28;20045;-71
2021/04/20 08:33:25;;;;;;;63.05;36.20;;;;;;;8.67;93.14;100456.88;20926830;28;20072;-70
2021/04/20 08:43:39;;;;;;;63.00;36.30;;;;;;;9.26;91.56;100451.47;20935728;28;20041;-71
2021/04/20 08:54:07;;;;;;;51.72;32.20;;;;;;;9.69;87.23;100439.78;20900266;28;20398;-71
2021/04/20 09:04:20;;;;;;;;;;;;;;;10.13;85.27;100453.19;20910667;28;20045;-71
2021/04/20 09:14:30;;;;;;;59.60;36.97;;;;;;;10.46;82.54;100449.78;20901077;28;19920;-71
2021/04/20 09:24:52;;;;;;;69.10;39.53;;;;;;;10.93;81.69;100436.72;20914929;28;20049;-71
2021/04/20 09:34:54;;;;;;;57.78;34.20;;;;;;;11.46;75.00;100434.59;20927106;28;20048;-71
2021/04/20 09:45:19;;;;;;;45.47;28.95;;;;;;;11.75;71.42;100434.69;20914375;28;20056;-71
2021/04/20 09:55:31;;;;;;;44.33;28.25;;;;;;;11.90;71.18;100434.63;20944350;28;20115;-71
2021/04/20 10:05:49;;;;;;;43.03;27.75;;;;;;;12.71;68.35;100433.16;20926124;28;20095;-72
2021/04/20 10:16:39;;;;;;;40.47;25.52;;;;;;;12.52;66.40;100427.38;20896437;28;20049;-72
2021/04/20 10:26:54;;;;;;;54.67;30.35;;;;;;;12.52;66.78;100406.38;20885695;28;20049;-71
2021/04/20 10:36:57;;;;;;;37.50;24.10;;;;;;;12.98;65.67;100400.84;20920627;28;20132;-72
2021/04/20 10:47:00;;;;;;;40.77;24.63;;;;;;;13.11;66.71;100391.22;20911574;28;20049;-69
2021/04/20 10:57:03;;;;;;;35.13;22.27;;;;;;;13.59;61.22;100389.81;20922466;28;20408;-69
2021/04/20 11:07:18;;;;;;;35.15;21.63;;;;;;;13.59;61.76;100368.78;20929044;28;20464;-69
2021/04/20 11:17:22;;;;;;;30.23;19.93;;;;;;;13.28;60.44;100355.06;20907503;28;20048;-71
2021/04/20 11:27:29;;;;;;;29.88;20.60;;;;;;;13.90;59.62;100349.13;20921005;28;20037;-69
2021/04/20 11:37:32;;;;;;;27.73;18.83;;;;;;;14.34;59.40;100331.06;20920187;28;20040;-69
2021/04/20 11:47:35;;;;;;;30.25;18.90;;;;;;;13.88;59.14;100319.44;20907382;28;20044;-69
2021/04/20 11:57:38;;;;;;;23.10;16.25;;;;;;;14.62;57.95;100314.19;20920788;28;20136;-69
2021/04/20 12:07:40;;;;;;;24.27;15.32;;;;;;;14.85;52.58;100308.06;20915779;28;20467;-69
2021/04/20 12:17:43;;;;;;;20.17;14.07;;;;;;;15.05;52.99;100303.97;20894685;28;20049;-68
2021/04/20 12:27:49;;;;;;;19.38;12.93;;;;;;;14.80;51.83;100301.44;20923870;28;20045;-69
2021/04/20 12:37:55;;;;;;;20.42;13.45;;;;;;;15.55;49.19;100294.06;20916038;28;20044;-70
2021/04/20 12:47:59;;;;;;;21.17;13.48;;;;;;;14.92;49.30;100274.22;20900284;28;20677;-70
2021/04/20 12:58:06;;;;;;;20.55;12.65;;;;;;;14.97;50.64;100272.06;20907626;28;20057;-70
2021/04/20 13:08:11;;;;;;;21.77;13.27;;;;;;;15.15;48.34;100265.41;20912320;28;20451;-70
2021/04/20 13:18:18;;;;;;;18.05;12.15;;;;;;;15.45;48.53;100256.13;20900698;28;20111;-69
2021/04/20 13:28:31;;;;;;;16.60;11.18;;;;;;;15.82;46.90;100249.72;20912411;28;20404;-70
2021/04/20 13:38:34;;;;;;;17.20;10.80;;;;;;;16.26;47.21;100238.25;20909179;28;20493;-70
2021/04/20 13:48:35;;;;;;;16.85;10.70;;;;;;;16.14;45.65;100232.19;20894308;28;20514;-71
2021/04/20 13:58:58;;;;;;;16.83;11.18;;;;;;;15.52;47.38;100215.16;20909220;28;20574;-70
2021/04/20 14:09:03;;;;;;;14.80;10.20;;;;;;;15.63;46.54;100209.91;20898231;28;20042;-70
2021/04/20 14:19:05;;;;;;;15.77;9.75;;;;;;;15.48;46.57;100197.88;20914292;28;20056;-70
2021/04/20 14:29:08;;;;;;;16.63;9.45;;;;;;;15.29;46.77;100199.28;20944772;28;20115;-70
2021/04/20 14:39:16;;;;;;;13.77;9.00;;;;;;;15.11;48.57;100179.59;20942628;28;20045;-70
2021/04/20 14:49:28;;;;;;;15.02;9.52;;;;;;;15.62;46.66;100179.19;20911074;28;20087;-70
2021/04/20 14:59:30;;;;;;;15.60;10.05;;;;;;;15.80;46.38;100172.44;20927831;28;20049;-70
2021/04/20 15:09:37;;;;;;;16.20;10.32;;;;;;;16.03;44.07;100167.97;20910107;28;20041;-70
2021/04/20 15:19:42;;;;;;;14.60;9.15;;;;;;;16.01;46.24;100167.25;20907971;28;20045;-70
2021/04/20 15:29:47;;;;;;;14.65;8.60;;;;;;;16.05;43.12;100151.03;20918730;28;20048;-70
2021/04/20 15:39:49;;;;;;;15.37;9.97;;;;;;;16.07;44.60;100158.84;20918263;28;20052;-71
2021/04/20 15:50:00;;;;;;;13.57;8.50;;;;;;;16.06;43.17;100157.16;20904717;28;20091;-70
2021/04/20 16:00:06;;;;;;;15.00;8.65;;;;;;;16.14;44.26;100145.03;20919810;28;20127;-70
2021/04/20 16:10:08;;;;;;;12.52;8.60;;;;;;;15.93;44.41;100149.41;20917845;28;20048;-70
2021/04/20 16:20:12;;;;;;;15.43;9.95;;;;;;;16.26;43.16;100146.66;20901715;28;20049;-70
2021/04/20 16:30:18;;;;;;;13.83;9.77;;;;;;;16.29;42.78;100137.66;20917070;28;20053;-70
2021/04/20 16:40:44;;;;;;;11.90;7.93;;;;;;;16.16;44.34;100121.97;20904533;28;20052;-70
2021/04/20 16:50:55;;;;;;;10.95;7.60;;;;;;;16.34;41.45;100118.78;20920980;28;20056;-70
2021/04/20 17:01:20;;;;;;;11.52;6.60;;;;;;;16.11;40.76;100118.88;20932678;28;20565;-70
2021/04/20 17:11:51;;;;;;;15.05;8.10;;;;;;;16.11;41.26;100118.88;20916272;28;20094;-70
2021/04/20 17:22:27;;;;;;;8.77;6.07;;;;;;;15.99;42.88;100109.31;20911017;28;20050;-70
2021/04/20 17:32:46;;;;;;;11.05;7.35;;;;;;;15.80;43.65;100119.66;20920825;28;20041;-69
2021/04/20 17:42:58;;;;;;;12.43;7.95;;;;;;;15.45;45.38;100118.97;20912472;28;20045;-69
2021/04/20 17:53:11;;;;;;;13.70;8.23;;;;;;;15.28;46.39;100122.94;20932116;28;20527;-70
2021/04/20 18:03:26;;;;;;;24.50;15.82;;;;;;;15.00;47.07;100121.59;20931042;28;20045;-70
2021/04/20 18:13:46;;;;;;;8.32;5.65;;;;;;;14.27;50.78;100134.19;20931581;28;20444;-70
2021/04/20 18:24:03;;;;;;;11.40;6.18;;;;;;;13.74;52.31;100140.69;20925255;28;20087;-70
2021/04/20 18:34:42;;;;;;;9.82;6.40;;;;;;;13.14;54.85;100144.03;20915312;28;20484;-70
2021/04/20 18:44:54;;;;;;;10.48;5.72;;;;;;;12.63;57.67;100151.84;20934711;28;20489;-68
2021/04/20 18:55:13;;;;;;;15.18;8.68;;;;;;;12.26;58.68;100161.28;20913578;28;20043;-67
2021/04/20 19:05:20;;;;;;;11.38;6.20;;;;;;;11.76;61.04;100175.00;20920737;28;20488;-67
2021/04/20 19:15:43;;;;;;;8.18;5.28;;;;;;;11.35;61.83;100184.56;20914915;28;20075;-67
2021/04/20 19:25:46;;;;;;;10.55;6.60;;;;;;;11.14;64.11;100190.16;20918126;28;20048;-67
2021/04/20 19:36:09;;;;;;;9.52;6.72;;;;;;;10.86;64.90;100187.50;20924158;28;20053;-67
2021/04/20 19:46:13;;;;;;;11.57;6.32;;;;;;;10.61;67.73;100189.84;20916720;28;20041;-67
2021/04/20 19:56:21;;;;;;;9.07;5.78;;;;;;;10.39;68.12;100197.22;20939306;28;20068;-67
2021/04/20 20:06:24;;;;;;;10.63;6.03;;;;;;;10.16;67.55;100204.59;20909440;28;20463;-67
2021/04/20 20:16:30;;;;;;;11.27;6.15;;;;;;;9.86;69.76;100204.47;20924278;28;20083;-67
2021/04/20 20:26:39;;;;;;;10.88;6.35;;;;;;;9.67;69.01;100202.94;20927103;28;20068;-67
2021/04/20 20:36:45;;;;;;;9.48;6.40;;;;;;;9.42;69.41;100208.63;20924366;28;20488;-67
2021/04/20 20:46:53;;;;;;;9.57;6.13;;;;;;;9.21;69.76;100207.97;20898352;28;20045;-68
2021/04/20 20:57:01;;;;;;;11.25;6.47;;;;;;;8.90;72.51;100206.09;20908300;23;20420;-72
2021/04/20 21:07:23;;;;;;;10.88;6.40;;;;;;;8.78;73.41;100198.03;20843897;28;20124;-72
2021/04/20 21:17:39;;;;;;;11.18;7.15;;;;;;;8.61;74.30;100204.09;20827792;28;20072;-72
2021/04/20 21:27:41;;;;;;;12.02;7.38;;;;;;;8.52;74.54;100210.59;20879073;28;20447;-72
2021/04/20 21:37:42;;;;;;;14.13;8.00;;;;;;;8.41;76.21;100207.66;20867432;28;20058;-72
2021/04/20 21:47:46;;;;;;;15.88;9.55;;;;;;;8.20;77.41;100208.66;20844485;28;20061;-73
2021/04/20 21:57:50;;;;;;;13.68;7.32;;;;;;;8.09;77.16;100218.75;20840097;28;20424;-72
2021/04/20 22:07:53;;;;;;;14.45;7.88;;;;;;;7.96;77.17;100215.03;20835070;28;20066;-70
2021/04/20 22:17:56;;;;;;;14.05;7.65;;;;;;;7.71;77.55;100217.91;20847999;28;20073;-70
2021/04/20 22:28:03;;;;;;;13.27;8.85;;;;;;;7.62;77.82;100220.91;20835765;28;20131;-70
2021/04/20 22:38:29;;;;;;;14.18;8.10;;;;;;;7.63;78.63;100228.66;20814392;28;20049;-70
2021/04/20 22:48:32;;;;;;;16.17;9.73;;;;;;;7.53;79.54;100232.59;20829091;28;20049;-70
2021/04/20 22:58:38;;;;;;;15.75;8.82;;;;;;;7.41;80.41;100227.94;20824104;28;20464;-71
2021/04/20 23:08:47;;;;;;;13.77;8.90;;;;;;;7.27;81.03;100228.53;20824904;28;20053;-71
2021/04/20 23:18:49;;;;;;;16.92;10.48;;;;;;;7.09;80.87;100225.88;20813790;28;20054;-71
2021/04/20 23:28:53;;;;;;;14.25;9.13;;;;;;;7.00;80.40;100221.06;20821765;28;20046;-72
2021/04/20 23:38:56;;;;;;;14.87;9.43;;;;;;;6.74;82.20;100215.22;20822629;28;20096;-72
2021/04/20 23:48:59;;;;;;;15.48;9.43;;;;;;;6.60;83.08;100217.53;20825788;28;20444;-72
2021/04/20 23:59:03;;;;;;;17.55;10.43;;;;;;;6.24;84.77;100217.25;20815683;28;20045;-71
